Time;durP1;ratioP1;P1;durP2;ratioP2;P2;SDS_P1;SDS_P2;PMS_P1;PMS_P2;Temp;Humidity;BMP_temperature;BMP_pressure;BME280_temperature;BME280_humidity;BME280_pressure;Samples;Min_cycle;Max_cycle;Signal;HPM_P1;HPM_P2
2023/12/29 00:02:06;;;;;;;10.23;9.93;;;9.60;99.90;;;;;;5165060;27;20239;-86
2023/12/29 00:04:33;;;;;;;10.20;9.90;;;9.60;99.90;;;;;;5165598;27;20216;-87
2023/12/29 00:07:01;;;;;;;10.30;10.00;;;9.50;99.90;;;;;;5151404;27;20228;-88
2023/12/29 00:09:38;;;;;;;10.40;10.10;;;9.50;99.90;;;;;;5144431;27;20224;-88
2023/12/29 00:14:48;;;;;;;10.43;10.13;;;9.50;99.90;;;;;;5144013;27;20281;-87
2023/12/29 00:20:04;;;;;;;10.30;10.00;;;9.50;99.90;;;;;;5143459;27;20310;-87
2023/12/29 00:22:43;;;;;;;10.53;10.23;;;9.40;99.90;;;;;;5152195;27;20236;-87
2023/12/29 00:25:13;;;;;;;10.50;10.20;;;9.50;99.90;;;;;;5139900;27;20244;-87
2023/12/29 00:27:41;;;;;;;10.53;10.23;;;9.40;99.90;;;;;;5130280;28;20686;-85
2023/12/29 00:30:11;;;;;;;10.60;10.30;;;9.40;99.90;;;;;;5129739;28;20213;-89
2023/12/29 00:35:37;;;;;;;10.47;10.17;;;9.30;99.90;;;;;;5130752;28;20229;-88
2023/12/29 00:43:36;;;;;;;10.67;10.37;;;9.10;99.90;;;;;;5150848;27;20239;-88
2023/12/29 00:54:13;;;;;;;10.53;10.23;;;8.90;99.90;;;;;;5162923;27;20211;-89
2023/12/29 00:56:42;;;;;;;10.30;10.00;;;8.90;99.90;;;;;;5162473;27;20223;-89
2023/12/29 00:59:11;;;;;;;10.60;10.30;;;8.90;99.90;;;;;;5153446;27;20286;-88
2023/12/29 01:01:42;;;;;;;10.40;10.10;;;9.00;99.90;;;;;;5153332;27;20287;-88
2023/12/29 01:04:12;;;;;;;10.50;10.20;;;9.00;99.90;;;;;;5149823;27;20228;-88
2023/12/29 01:06:41;;;;;;;10.53;10.23;;;9.00;99.90;;;;;;5133843;27;20248;-89
2023/12/29 01:09:13;;;;;;;10.60;10.30;;;9.00;99.90;;;;;;5129525;28;20240;-89
2023/12/29 01:11:40;;;;;;;10.53;10.23;;;9.00;99.90;;;;;;5129739;28;20242;-87
2023/12/29 01:14:09;;;;;;;11.00;10.70;;;9.00;99.90;;;;;;5128189;28;20243;-87
2023/12/29 01:16:49;;;;;;;10.93;10.63;;;8.90;99.90;;;;;;5129701;28;20233;-86
2023/12/29 01:19:20;;;;;;;11.20;10.80;;;8.80;99.90;;;;;;5131511;28;20276;-85
2023/12/29 01:21:47;;;;;;;11.13;10.73;;;8.70;99.90;;;;;;5135902;28;20232;-87
2023/12/29 01:24:16;;;;;;;10.87;10.57;;;8.70;99.90;;;;;;5131824;28;20233;-88
2023/12/29 01:26:45;;;;;;;10.80;10.50;;;8.70;99.90;;;;;;5136954;27;20233;-88
2023/12/29 01:29:16;;;;;;;11.20;10.80;;;8.70;99.90;;;;;;5140024;27;20281;-87
2023/12/29 01:31:44;;;;;;;11.00;10.60;;;8.70;99.90;;;;;;5141714;27;20224;-87
2023/12/29 01:34:23;;;;;;;10.70;10.40;;;8.70;99.90;;;;;;5141251;27;20237;-87
2023/12/29 01:39:49;;;;;;;10.97;10.57;;;8.70;99.90;;;;;;5132205;27;20309;-88
2023/12/29 01:42:19;;;;;;;10.57;10.27;;;8.70;99.90;;;;;;5130409;28;20243;-87
2023/12/29 01:44:52;;;;;;;10.80;10.50;;;8.70;99.90;;;;;;5130586;28;20288;-87
2023/12/29 01:47:25;;;;;;;10.80;10.50;;;8.70;99.90;;;;;;5136194;28;20291;-86
2023/12/29 01:50:05;;;;;;;10.77;10.47;;;8.80;99.90;;;;;;5133534;28;20221;-87
2023/12/29 01:52:38;;;;;;;10.87;10.57;;;8.80;99.90;;;;;;5131804;27;20220;-88
2023/12/29 01:55:22;;;;;;;10.80;10.50;;;8.90;99.90;;;;;;5135553;28;20255;-87
2023/12/29 01:57:50;;;;;;;10.90;10.60;;;8.90;99.90;;;;;;5152516;27;20228;-88
2023/12/29 02:00:19;;;;;;;10.77;10.47;;;8.90;99.90;;;;;;5140134;27;20227;-86
2023/12/29 02:02:48;;;;;;;11.00;10.70;;;8.90;99.90;;;;;;5134880;27;20248;-88
2023/12/29 02:05:17;;;;;;;11.07;10.70;;;8.90;99.90;;;;;;5127901;28;20233;-86
2023/12/29 02:08:05;;;;;;;11.07;10.70;;;8.80;99.90;;;;;;5127734;28;20233;-88
2023/12/29 02:10:34;;;;;;;11.10;10.70;;;8.70;99.90;;;;;;5128004;28;20288;-85
2023/12/29 02:13:13;;;;;;;10.93;10.63;;;8.70;99.90;;;;;;5127793;27;20213;-86
2023/12/29 02:15:41;;;;;;;11.17;10.77;;;8.70;99.90;;;;;;5127311;28;20309;-86
2023/12/29 02:21:08;;;;;;;11.10;10.70;;;8.60;99.90;;;;;;5127454;28;20224;-86
2023/12/29 02:26:33;;;;;;;10.83;10.50;;;8.60;99.90;;;;;;5127318;28;20240;-86
2023/12/29 02:34:36;;;;;;;10.63;10.33;;;8.60;99.90;;;;;;5127017;28;20244;-86
2023/12/29 02:37:05;;;;;;;11.00;10.60;;;8.50;99.90;;;;;;5127665;28;20231;-86
2023/12/29 02:39:34;;;;;;;11.00;10.60;;;8.60;99.90;;;;;;5127282;28;20278;-86
2023/12/29 02:42:07;;;;;;;11.07;10.67;;;8.60;99.90;;;;;;5126784;27;20236;-87
2023/12/29 02:44:34;;;;;;;11.17;10.77;;;8.50;99.90;;;;;;5127410;28;20225;-87
2023/12/29 02:47:03;;;;;;;10.93;10.53;;;8.50;99.90;;;;;;5127909;28;20232;-87
2023/12/29 02:49:33;;;;;;;11.10;10.70;;;8.50;99.90;;;;;;5127702;27;20240;-86
2023/12/29 02:52:02;;;;;;;11.20;10.80;;;8.40;99.90;;;;;;5129102;27;20275;-86
2023/12/29 02:57:12;;;;;;;11.00;10.60;;;8.30;99.90;;;;;;5136428;27;20225;-86
2023/12/29 02:59:39;;;;;;;11.00;10.60;;;8.20;99.90;;;;;;5130040;28;20232;-87
2023/12/29 03:02:18;;;;;;;11.00;10.60;;;8.20;99.90;;;;;;5129346;27;20251;-87
2023/12/29 03:04:46;;;;;;;11.30;10.90;;;8.10;99.90;;;;;;5132289;28;20193;-86
2023/12/29 03:09:57;;;;;;;11.20;10.80;;;8.10;99.90;;;;;;5126768;28;20216;-88
2023/12/29 03:12:28;;;;;;;11.17;10.77;;;8.10;99.90;;;;;;5126185;28;20701;-86
2023/12/29 03:14:56;;;;;;;11.10;10.70;;;8.00;99.90;;;;;;5125558;28;20224;-86
2023/12/29 03:17:24;;;;;;;11.00;10.60;;;8.00;99.90;;;;;;5125651;28;20232;-87
2023/12/29 03:20:04;;;;;;;11.10;10.70;;;8.00;99.90;;;;;;5135676;27;20223;-85
2023/12/29 03:22:32;;;;;;;11.07;10.67;;;8.00;99.90;;;;;;5147887;27;20247;-87
2023/12/29 03:25:10;;;;;;;11.40;11.00;;;8.00;99.90;;;;;;5146625;27;20246;-87
2023/12/29 03:27:42;;;;;;;10.97;10.57;;;8.00;99.90;;;;;;5146520;27;20314;-86
2023/12/29 03:30:12;;;;;;;11.20;10.80;;;8.10;99.90;;;;;;5146521;27;20320;-88
2023/12/29 03:32:39;;;;;;;11.07;10.67;;;8.00;99.90;;;;;;5146505;27;20249;-87
2023/12/29 03:35:08;;;;;;;11.00;10.60;;;8.10;99.90;;;;;;5147516;27;20258;-86
2023/12/29 03:37:47;;;;;;;10.90;10.50;;;8.10;99.90;;;;;;5147195;27;20235;-88
2023/12/29 03:40:16;;;;;;;11.00;10.60;;;8.10;99.90;;;;;;5146654;27;20224;-88
2023/12/29 03:45:41;;;;;;;11.30;10.90;;;8.00;99.90;;;;;;5146244;27;20270;-88
2023/12/29 03:48:10;;;;;;;11.10;10.70;;;8.10;99.90;;;;;;5138445;27;20224;-87
2023/12/29 03:50:50;;;;;;;11.10;10.70;;;8.10;99.90;;;;;;5141790;27;20306;-88
2023/12/29 03:53:19;;;;;;;11.00;10.60;;;8.10;99.90;;;;;;5124745;27;20408;-87
2023/12/29 03:55:47;;;;;;;11.30;10.90;;;8.00;99.90;;;;;;5125559;28;20324;-87
2023/12/29 04:01:13;;;;;;;11.10;10.70;;;7.90;99.90;;;;;;5130621;27;20209;-87
2023/12/29 04:03:42;;;;;;;11.30;10.90;;;7.80;99.90;;;;;;5132028;27;20221;-87
2023/12/29 04:06:20;;;;;;;11.27;10.87;;;7.80;99.90;;;;;;5130266;28;20229;-87
2023/12/29 04:08:59;;;;;;;11.20;10.80;;;7.80;99.90;;;;;;5128964;28;20228;-88
2023/12/29 04:11:28;;;;;;;11.17;10.77;;;7.90;99.90;;;;;;5129110;27;20297;-88
2023/12/29 04:14:00;;;;;;;11.30;10.90;;;7.90;99.90;;;;;;5128258;28;20255;-89
2023/12/29 04:16:28;;;;;;;11.17;10.77;;;7.90;99.90;;;;;;5128981;28;20236;-88
2023/12/29 04:18:56;;;;;;;11.17;10.77;;;7.90;99.90;;;;;;5131851;28;20279;-88
2023/12/29 04:21:36;;;;;;;10.70;10.40;;;7.90;99.90;;;;;;5133128;27;20282;-88
2023/12/29 04:24:05;;;;;;;11.07;10.67;;;7.80;99.90;;;;;;5131285;28;20251;-88
2023/12/29 04:29:23;;;;;;;11.00;10.60;;;7.90;99.90;;;;;;5128817;27;20286;-88
2023/12/29 04:31:51;;;;;;;10.73;10.43;;;7.90;99.90;;;;;;5128876;27;20228;-88
2023/12/29 04:34:19;;;;;;;10.80;10.50;;;8.00;99.90;;;;;;5128095;28;20247;-88
2023/12/29 04:36:58;;;;;;;11.10;10.70;;;8.10;99.90;;;;;;5128357;28;20229;-87
2023/12/29 04:39:27;;;;;;;11.30;10.90;;;8.00;99.90;;;;;;5128097;28;20229;-88
2023/12/29 04:42:07;;;;;;;11.20;10.80;;;8.10;99.90;;;;;;5128290;28;20239;-88
2023/12/29 04:44:37;;;;;;;10.83;10.53;;;8.20;99.90;;;;;;5127807;28;20247;-88
2023/12/29 04:47:05;;;;;;;11.07;10.67;;;8.20;99.90;;;;;;5135636;27;20208;-88
2023/12/29 04:49:33;;;;;;;11.33;10.93;;;8.20;99.90;;;;;;5148907;27;20262;-87
2023/12/29 04:52:13;;;;;;;11.20;10.80;;;8.20;99.90;;;;;;5148522;27;20239;-88
2023/12/29 04:54:42;;;;;;;11.20;10.80;;;8.20;99.90;;;;;;5149043;27;20243;-88
2023/12/29 04:57:11;;;;;;;11.00;10.70;;;8.20;99.90;;;;;;5158986;27;20259;-87
2023/12/29 04:59:43;;;;;;;10.80;10.50;;;8.30;99.90;;;;;;5159890;27;20231;-88
2023/12/29 05:02:11;;;;;;;11.03;10.63;;;8.30;99.90;;;;;;5155226;27;20232;-88
2023/12/29 05:04:39;;;;;;;10.90;10.60;;;8.30;99.90;;;;;;5155256;27;20247;-88
2023/12/29 05:07:10;;;;;;;11.10;10.70;;;8.30;99.90;;;;;;5150784;27;20220;-87
2023/12/29 05:09:49;;;;;;;10.90;10.60;;;8.40;99.90;;;;;;5149215;27;20250;-88
2023/12/29 05:12:17;;;;;;;10.90;10.60;;;8.40;99.90;;;;;;5149859;22;20229;-79
2023/12/29 05:14:49;;;;;;;10.70;10.40;;;8.40;99.90;;;;;;5068741;28;20258;-79
2023/12/29 05:17:16;;;;;;;10.93;10.60;;;8.40;99.90;;;;;;5065424;28;20219;-79
2023/12/29 05:19:43;;;;;;;10.80;10.50;;;8.40;99.90;;;;;;5060722;28;20262;-80
2023/12/29 05:22:11;;;;;;;10.60;10.30;;;8.30;99.90;;;;;;5045478;28;20243;-79
2023/12/29 05:24:41;;;;;;;10.87;10.57;;;8.30;99.90;;;;;;5025118;28;20267;-79
2023/12/29 05:27:08;;;;;;;11.10;10.70;;;8.30;99.90;;;;;;5025596;28;20224;-80
2023/12/29 05:29:35;;;;;;;10.77;10.47;;;8.20;99.90;;;;;;5029752;28;20232;-80
2023/12/29 05:32:05;;;;;;;10.70;10.40;;;8.20;99.90;;;;;;5029241;28;20232;-79
2023/12/29 05:34:33;;;;;;;10.80;10.50;;;8.20;99.90;;;;;;5026508;28;20236;-79
2023/12/29 05:37:00;;;;;;;10.60;10.30;;;8.20;99.90;;;;;;5025028;28;20232;-79
2023/12/29 05:39:29;;;;;;;10.67;10.37;;;8.20;99.90;;;;;;5025547;28;20236;-79
2023/12/29 05:41:56;;;;;;;10.57;10.27;;;8.10;99.90;;;;;;5025568;28;20223;-80
2023/12/29 05:44:23;;;;;;;10.60;10.30;;;8.10;99.90;;;;;;5044444;28;20288;-80
2023/12/29 05:46:51;;;;;;;10.70;10.40;;;8.10;99.90;;;;;;5048769;28;20215;-80
2023/12/29 05:49:20;;;;;;;10.70;10.40;;;8.10;99.90;;;;;;5046624;28;20259;-82
2023/12/29 05:51:47;;;;;;;10.60;10.30;;;8.10;99.90;;;;;;5045380;28;20659;-79
2023/12/29 05:54:14;;;;;;;10.37;10.07;;;8.10;99.90;;;;;;5045466;28;20232;-80
2023/12/29 05:56:42;;;;;;;10.90;10.60;;;8.10;99.90;;;;;;5045065;28;20263;-80
2023/12/29 05:59:09;;;;;;;10.80;10.50;;;8.10;99.90;;;;;;5045296;28;20227;-80
2023/12/29 06:01:36;;;;;;;10.80;10.50;;;8.10;99.90;;;;;;5045435;28;20232;-82
2023/12/29 06:04:04;;;;;;;10.60;10.30;;;8.00;99.90;;;;;;5044642;28;20230;-80
2023/12/29 06:06:33;;;;;;;10.80;10.50;;;7.90;99.90;;;;;;5045295;28;20232;-80
2023/12/29 06:09:00;;;;;;;10.83;10.53;;;7.90;99.90;;;;;;5045257;28;20242;-82
2023/12/29 06:11:28;;;;;;;10.60;10.30;;;7.90;99.90;;;;;;5045398;28;20227;-80
2023/12/29 06:13:55;;;;;;;10.90;10.60;;;7.90;99.90;;;;;;5044496;28;20246;-80
2023/12/29 06:16:23;;;;;;;10.83;10.53;;;7.90;99.90;;;;;;5044965;28;20758;-81
2023/12/29 06:18:51;;;;;;;10.90;10.60;;;7.80;99.90;;;;;;5044375;28;20330;-80
2023/12/29 06:21:19;;;;;;;10.80;10.50;;;7.70;99.90;;;;;;5044276;28;20235;-80
2023/12/29 06:23:48;;;;;;;11.00;10.70;;;7.60;99.90;;;;;;5043469;28;20261;-81
2023/12/29 06:26:17;;;;;;;10.97;10.67;;;7.60;99.90;;;;;;5043931;28;20235;-80
2023/12/29 06:28:45;;;;;;;10.80;10.50;;;7.50;99.90;;;;;;5044016;28;20232;-80
2023/12/29 06:31:13;;;;;;;10.73;10.43;;;7.50;99.90;;;;;;5044375;28;20227;-80
2023/12/29 06:33:42;;;;;;;10.70;10.40;;;7.50;99.90;;;;;;5046453;28;20262;-81
2023/12/29 06:36:10;;;;;;;11.10;10.80;;;7.50;99.90;;;;;;5062850;28;20277;-80
2023/12/29 06:38:38;;;;;;;11.27;10.87;;;7.60;99.90;;;;;;5043559;28;20238;-80
2023/12/29 06:41:07;;;;;;;10.90;10.60;;;7.60;99.90;;;;;;5043878;28;20231;-80
2023/12/29 06:43:34;;;;;;;10.77;10.47;;;7.60;99.90;;;;;;5043626;28;20232;-80
2023/12/29 06:46:02;;;;;;;10.90;10.60;;;7.60;99.90;;;;;;5043175;28;20278;-80
2023/12/29 06:48:29;;;;;;;10.67;10.37;;;7.60;99.90;;;;;;5043757;28;20243;-80
2023/12/29 06:50:56;;;;;;;10.50;10.20;;;7.70;99.90;;;;;;5042963;28;20262;-80
2023/12/29 06:53:24;;;;;;;11.07;10.70;;;7.70;99.90;;;;;;5045507;28;20327;-80
2023/12/29 06:55:51;;;;;;;10.70;10.40;;;7.70;99.90;;;;;;5045865;28;20219;-80
2023/12/29 06:58:20;;;;;;;10.80;10.50;;;7.70;99.90;;;;;;5043582;28;20238;-81
2023/12/29 07:00:48;;;;;;;10.43;10.13;;;7.80;99.90;;;;;;5044034;28;20242;-81
2023/12/29 07:03:15;;;;;;;10.57;10.27;;;7.80;99.90;;;;;;5043646;28;20279;-81
2023/12/29 07:05:43;;;;;;;10.60;10.30;;;7.90;99.90;;;;;;5042733;28;20313;-81
2023/12/29 07:08:13;;;;;;;10.70;10.40;;;7.90;99.90;;;;;;5043392;28;20230;-81
2023/12/29 07:10:40;;;;;;;10.70;10.40;;;8.00;99.90;;;;;;5043090;28;20259;-81
2023/12/29 07:13:08;;;;;;;10.67;10.37;;;8.00;99.90;;;;;;5042498;28;20235;-80
2023/12/29 07:15:37;;;;;;;10.47;10.17;;;8.10;99.90;;;;;;5043248;28;20227;-80
2023/12/29 07:18:05;;;;;;;10.83;10.53;;;8.10;99.90;;;;;;5043447;28;20239;-80
2023/12/29 07:20:32;;;;;;;10.77;10.47;;;8.10;99.90;;;;;;5043882;28;20254;-80
2023/12/29 07:23:00;;;;;;;10.30;10.00;;;8.20;99.90;;;;;;5042995;28;20297;-81
2023/12/29 07:25:28;;;;;;;10.40;10.10;;;8.30;99.90;;;;;;5043182;28;20220;-80
2023/12/29 07:27:55;;;;;;;11.00;10.70;;;8.30;99.90;;;;;;5041386;28;20408;-81
2023/12/29 07:30:25;;;;;;;10.47;10.17;;;8.40;99.90;;;;;;5046152;28;20232;-85
2023/12/29 07:32:54;;;;;;;10.70;10.40;;;8.60;99.90;;;;;;5054448;28;20238;-80
2023/12/29 07:35:22;;;;;;;10.57;10.27;;;8.70;99.90;;;;;;5054699;28;20294;-81
2023/12/29 07:37:49;;;;;;;10.53;10.23;;;8.80;99.90;;;;;;5057576;28;20235;-81
2023/12/29 07:40:16;;;;;;;10.37;10.07;;;8.90;99.90;;;;;;5055323;28;20227;-81
2023/12/29 07:42:46;;;;;;;10.13;9.83;;;8.90;99.90;;;;;;5047853;28;20224;-82
2023/12/29 07:45:13;;;;;;;10.10;9.80;;;8.90;99.90;;;;;;5047315;28;20246;-82
2023/12/29 07:47:41;;;;;;;10.00;9.70;;;8.90;99.90;;;;;;5046773;28;20227;-82
2023/12/29 07:50:10;;;;;;;10.40;10.10;;;8.90;99.90;;;;;;5046673;28;20227;-81
2023/12/29 07:52:38;;;;;;;10.10;9.80;;;8.90;99.90;;;;;;5046154;28;20234;-81
2023/12/29 07:55:06;;;;;;;10.17;9.87;;;8.90;99.90;;;;;;5045980;28;20232;-81
2023/12/29 07:57:33;;;;;;;10.30;10.00;;;9.00;99.90;;;;;;5046337;28;20228;-81
2023/12/29 08:00:00;;;;;;;10.20;9.90;;;9.10;99.90;;;;;;5044969;28;20233;-81
2023/12/29 08:02:28;;;;;;;10.00;9.70;;;9.10;99.90;;;;;;5045017;28;20246;-81
2023/12/29 08:04:56;;;;;;;10.30;10.00;;;9.20;99.90;;;;;;5046062;28;20227;-81
2023/12/29 08:07:24;;;;;;;10.10;9.80;;;9.20;99.90;;;;;;5046086;28;20254;-84
2023/12/29 08:09:52;;;;;;;10.30;10.00;;;9.30;99.90;;;;;;5046524;28;20235;-81
2023/12/29 08:12:19;;;;;;;10.27;9.97;;;9.30;99.90;;;;;;5046489;28;20227;-83
2023/12/29 08:14:47;;;;;;;10.00;9.70;;;9.40;99.90;;;;;;5045418;28;20215;-81
2023/12/29 08:17:14;;;;;;;10.20;9.90;;;9.50;99.90;;;;;;5044803;28;20314;-80
2023/12/29 08:19:42;;;;;;;10.27;9.97;;;9.50;99.90;;;;;;5047028;28;20227;-81
2023/12/29 08:22:09;;;;;;;10.20;9.90;;;9.60;99.90;;;;;;5045276;28;20240;-81
2023/12/29 08:24:42;;;;;;;10.10;9.80;;;9.60;99.90;;;;;;5047608;28;20236;-82
2023/12/29 08:27:10;;;;;;;9.97;9.67;;;9.60;99.90;;;;;;5047470;28;20287;-81
2023/12/29 08:29:38;;;;;;;9.70;9.40;;;9.70;99.90;;;;;;5045393;28;20239;-81
2023/12/29 08:32:06;;;;;;;9.90;9.60;;;9.80;99.90;;;;;;5044673;28;20239;-82
2023/12/29 08:34:34;;;;;;;9.83;9.53;;;9.80;99.90;;;;;;5047756;28;20242;-81
2023/12/29 08:37:01;;;;;;;10.20;9.90;;;9.80;99.90;;;;;;5044912;28;20327;-82
2023/12/29 08:39:28;;;;;;;9.83;9.53;;;9.80;99.90;;;;;;5045383;28;20228;-82
2023/12/29 08:41:57;;;;;;;9.70;9.40;;;9.80;99.90;;;;;;5044494;28;20227;-82
2023/12/29 08:44:24;;;;;;;9.33;9.03;;;9.80;99.90;;;;;;5045230;28;20254;-82
2023/12/29 08:46:52;;;;;;;9.60;9.30;;;9.80;99.90;;;;;;5044095;28;20286;-81
2023/12/29 08:49:19;;;;;;;10.00;9.70;;;9.90;99.90;;;;;;5044039;28;20255;-82
2023/12/29 08:51:47;;;;;;;10.00;9.70;;;9.90;99.90;;;;;;5044571;28;20239;-82
2023/12/29 08:54:14;;;;;;;10.20;9.90;;;10.00;99.90;;;;;;5044468;28;20223;-82
2023/12/29 08:56:42;;;;;;;10.00;9.70;;;10.00;99.90;;;;;;5048090;28;20243;-81
2023/12/29 08:59:14;;;;;;;9.90;9.60;;;10.00;99.90;;;;;;5046197;28;20231;-82
2023/12/29 09:01:48;;;;;;;10.03;9.73;;;10.10;99.90;;;;;;5046206;28;20244;-83
2023/12/29 09:04:18;;;;;;;10.10;9.80;;;10.10;99.90;;;;;;5046722;28;20208;-83
2023/12/29 09:06:48;;;;;;;9.93;9.63;;;10.10;99.90;;;;;;5046600;28;20270;-83
2023/12/29 09:09:18;;;;;;;10.17;9.87;;;10.20;99.90;;;;;;5046713;28;20232;-83
2023/12/29 09:11:47;;;;;;;10.30;10.00;;;10.20;99.90;;;;;;5055877;28;20230;-83
2023/12/29 09:14:16;;;;;;;10.07;9.77;;;10.20;99.90;;;;;;5068165;28;20233;-82
2023/12/29 09:16:46;;;;;;;10.10;9.80;;;10.10;99.90;;;;;;5059483;28;20235;-82
2023/12/29 09:19:13;;;;;;;10.20;9.90;;;10.20;99.90;;;;;;5055534;28;20235;-85
2023/12/29 09:21:41;;;;;;;10.20;9.90;;;10.20;99.90;;;;;;5048189;28;20235;-82
2023/12/29 09:24:08;;;;;;;10.30;10.00;;;10.30;99.90;;;;;;5046854;28;20294;-82
2023/12/29 09:26:35;;;;;;;10.50;10.20;;;10.40;99.90;;;;;;5047317;28;20286;-82
2023/12/29 09:29:03;;;;;;;10.47;10.17;;;10.50;99.90;;;;;;5046918;28;20295;-82
2023/12/29 09:31:31;;;;;;;10.27;9.97;;;10.70;99.90;;;;;;5046189;28;20224;-82
2023/12/29 09:34:00;;;;;;;10.27;9.97;;;10.60;99.90;;;;;;5045176;28;20228;-82
2023/12/29 09:36:27;;;;;;;10.47;10.17;;;10.60;99.90;;;;;;5044439;28;20235;-83
2023/12/29 09:38:55;;;;;;;10.50;10.20;;;10.50;99.90;;;;;;5045327;28;20231;-82
2023/12/29 09:41:25;;;;;;;10.07;9.77;;;10.40;99.90;;;;;;5045528;28;20234;-83
2023/12/29 09:43:53;;;;;;;10.13;9.83;;;10.50;99.90;;;;;;5046887;28;20219;-82
2023/12/29 09:46:23;;;;;;;9.97;9.67;;;10.40;99.90;;;;;;5044785;28;20258;-81
2023/12/29 09:48:56;;;;;;;10.20;9.90;;;10.40;99.90;;;;;;5044666;28;20236;-82
2023/12/29 09:51:24;;;;;;;9.97;9.67;;;10.30;99.90;;;;;;5045680;28;20266;-82
2023/12/29 09:53:58;;;;;;;10.20;9.90;;;10.30;99.90;;;;;;5044518;28;20290;-87
2023/12/29 09:56:26;;;;;;;10.00;9.70;;;10.30;99.90;;;;;;5044127;28;20231;-83
2023/12/29 09:59:00;;;;;;;9.90;9.60;;;10.40;99.90;;;;;;5044025;28;20227;-83
2023/12/29 10:01:31;;;;;;;10.13;9.83;;;10.40;99.90;;;;;;5045302;28;20241;-83
2023/12/29 10:04:00;;;;;;;10.20;9.90;;;10.50;99.90;;;;;;5045653;28;20235;-81
2023/12/29 10:06:28;;;;;;;10.03;9.73;;;10.50;99.90;;;;;;5044805;28;20224;-83
2023/12/29 10:08:58;;;;;;;10.20;9.90;;;10.50;99.90;;;;;;5045383;28;20961;-82
2023/12/29 10:11:26;;;;;;;10.27;9.97;;;10.50;99.90;;;;;;5044521;28;20228;-83
2023/12/29 10:13:56;;;;;;;10.20;9.90;;;10.50;99.90;;;;;;5046687;28;20239;-83
2023/12/29 10:16:31;;;;;;;10.20;9.90;;;10.50;99.90;;;;;;5045174;28;20239;-82
2023/12/29 10:19:14;;;;;;;10.00;9.70;;;10.50;99.90;;;;;;5046208;28;20238;-83
2023/12/29 10:21:55;;;;;;;10.00;9.70;;;10.50;99.90;;;;;;5038708;28;20219;-83
2023/12/29 10:24:23;;;;;;;10.30;10.00;;;10.40;99.90;;;;;;5045768;28;20243;-82
2023/12/29 10:26:53;;;;;;;10.60;10.30;;;10.40;99.90;;;;;;5043553;28;20235;-81
2023/12/29 10:29:21;;;;;;;10.40;10.10;;;10.30;99.90;;;;;;5043990;28;20234;-81
2023/12/29 10:31:49;;;;;;;10.00;9.70;;;10.20;99.90;;;;;;5043810;28;20290;-81
2023/12/29 10:34:28;;;;;;;10.17;9.87;;;10.10;99.90;;;;;;5044342;28;20228;-81
2023/12/29 10:36:56;;;;;;;10.10;9.80;;;10.20;99.90;;;;;;5044421;28;20295;-81
2023/12/29 10:39:23;;;;;;;10.20;9.90;;;10.10;99.90;;;;;;5043618;28;20263;-80
2023/12/29 10:41:51;;;;;;;10.03;9.73;;;10.20;99.90;;;;;;5043691;28;20322;-81
2023/12/29 10:44:18;;;;;;;10.10;9.80;;;10.10;99.90;;;;;;5043061;28;20285;-82
2023/12/29 10:46:46;;;;;;;10.30;10.00;;;10.20;99.90;;;;;;5043057;28;20238;-82
2023/12/29 10:49:14;;;;;;;10.20;9.90;;;10.20;99.90;;;;;;5042582;28;20343;-83
2023/12/29 10:51:43;;;;;;;10.27;9.97;;;10.20;99.90;;;;;;5043929;28;20283;-81
2023/12/29 10:54:23;;;;;;;10.70;10.40;;;10.20;99.90;;;;;;5043509;28;20231;-80
2023/12/29 10:57:02;;;;;;;10.47;10.17;;;10.20;99.90;;;;;;5040432;28;20339;-82
2023/12/29 10:59:30;;;;;;;10.27;9.97;;;10.20;99.90;;;;;;5042628;28;20308;-84
2023/12/29 11:01:58;;;;;;;10.13;9.83;;;10.20;99.90;;;;;;5043135;28;20290;-81
2023/12/29 11:04:25;;;;;;;9.97;9.67;;;10.20;99.90;;;;;;5042984;28;20282;-81
2023/12/29 11:06:54;;;;;;;9.90;9.60;;;10.00;99.90;;;;;;5043028;28;20238;-80
2023/12/29 11:09:29;;;;;;;10.20;9.90;;;9.90;99.90;;;;;;5042030;28;20228;-82
2023/12/29 11:11:59;;;;;;;10.20;9.90;;;9.80;99.90;;;;;;5043572;28;20219;-81
2023/12/29 11:14:28;;;;;;;10.47;10.17;;;9.90;99.90;;;;;;5042627;28;20219;-84
2023/12/29 11:16:57;;;;;;;9.90;9.60;;;9.90;99.90;;;;;;5042375;28;20235;-82
2023/12/29 11:19:25;;;;;;;10.37;10.07;;;10.00;99.90;;;;;;5042446;28;20406;-81
2023/12/29 11:21:56;;;;;;;10.37;10.07;;;10.00;99.90;;;;;;5044659;28;20285;-82
2023/12/29 11:24:24;;;;;;;10.50;10.20;;;10.00;99.90;;;;;;5042655;28;20227;-82
2023/12/29 11:26:52;;;;;;;10.77;10.47;;;10.00;99.90;;;;;;5042136;28;20379;-81
2023/12/29 11:29:20;;;;;;;10.60;10.30;;;10.00;99.90;;;;;;5042176;28;20285;-82
2023/12/29 11:31:49;;;;;;;10.10;9.80;;;10.00;99.90;;;;;;5042339;28;20289;-82
2023/12/29 11:34:35;;;;;;;10.20;9.90;;;10.00;99.90;;;;;;5042065;28;20227;-82
2023/12/29 11:37:29;;;;;;;10.40;10.10;;;10.00;99.90;;;;;;5024418;28;20231;-82
2023/12/29 11:40:15;;;;;;;10.20;9.90;;;10.10;99.90;;;;;;5047844;28;20235;-82
2023/12/29 11:42:45;;;;;;;10.30;10.00;;;10.10;99.90;;;;;;5042689;28;20227;-81
2023/12/29 11:45:27;;;;;;;10.53;10.23;;;10.10;99.90;;;;;;5042040;28;20220;-82
2023/12/29 11:47:55;;;;;;;10.40;10.10;;;10.10;99.90;;;;;;5042113;28;20247;-82
2023/12/29 11:50:32;;;;;;;10.47;10.17;;;10.10;99.90;;;;;;5042242;28;20227;-83
2023/12/29 11:53:01;;;;;;;10.40;10.10;;;10.10;99.90;;;;;;5042212;28;20234;-82
2023/12/29 11:55:38;;;;;;;10.10;9.80;;;10.20;99.90;;;;;;5042178;28;20227;-81
2023/12/29 11:58:26;;;;;;;10.00;9.70;;;10.20;99.90;;;;;;5040962;28;20235;-82
2023/12/29 12:00:58;;;;;;;10.20;9.90;;;10.40;99.90;;;;;;5043190;28;20227;-83
2023/12/29 12:03:27;;;;;;;10.00;9.70;;;10.50;99.90;;;;;;5042715;28;20292;-83
2023/12/29 12:05:58;;;;;;;10.30;10.00;;;10.70;99.90;;;;;;5043096;28;20223;-83
2023/12/29 12:08:32;;;;;;;10.23;9.93;;;10.80;99.90;;;;;;5042554;28;20235;-83
2023/12/29 12:11:50;;;;;;;10.43;10.13;;;10.90;99.90;;;;;;5048215;28;20235;-84
2023/12/29 12:15:02;;;;;;;10.37;10.07;;;11.00;99.90;;;;;;5045911;28;20366;-86
2023/12/29 12:17:35;;;;;;;10.30;10.00;;;11.00;99.90;;;;;;5016871;28;20223;-81
2023/12/29 12:20:09;;;;;;;11.00;10.70;;;11.10;99.90;;;;;;5043944;28;20227;-81
2023/12/29 12:22:38;;;;;;;10.50;10.20;;;11.10;99.90;;;;;;5046116;28;20239;-81
2023/12/29 12:25:09;;;;;;;10.37;10.07;;;11.10;99.90;;;;;;5046578;28;20259;-81
2023/12/29 12:27:40;;;;;;;10.70;10.40;;;11.20;99.90;;;;;;5046778;28;20227;-82
2023/12/29 12:30:09;;;;;;;10.50;10.20;;;11.30;99.90;;;;;;5046875;28;20266;-82
2023/12/29 12:32:37;;;;;;;10.60;10.30;;;11.40;99.90;;;;;;5051640;28;20274;-82
2023/12/29 12:35:15;;;;;;;10.57;10.27;;;11.50;99.90;;;;;;5047932;28;20224;-82
2023/12/29 12:37:45;;;;;;;10.60;10.30;;;11.60;99.90;;;;;;5048217;28;20282;-82
2023/12/29 12:40:27;;;;;;;10.80;10.50;;;11.60;99.90;;;;;;5045267;28;20239;-80
2023/12/29 12:43:09;;;;;;;10.80;10.50;;;11.70;99.90;;;;;;5043558;28;20235;-83
2023/12/29 12:45:54;;;;;;;10.60;10.30;;;11.80;99.90;;;;;;5051492;28;20226;-82
2023/12/29 12:48:27;;;;;;;10.83;10.53;;;11.90;99.90;;;;;;5052682;28;20275;-79
2023/12/29 12:50:56;;;;;;;10.93;10.63;;;11.90;99.90;;;;;;5060727;28;20274;-82
2023/12/29 12:53:27;;;;;;;10.43;10.13;;;11.80;99.90;;;;;;5052110;28;20227;-82
2023/12/29 12:55:56;;;;;;;10.40;10.10;;;11.70;99.90;;;;;;5044645;28;20289;-81
2023/12/29 12:58:25;;;;;;;10.67;10.37;;;11.70;99.90;;;;;;5038694;28;20231;-78
2023/12/29 13:00:53;;;;;;;10.50;10.20;;;11.70;99.90;;;;;;5039166;28;20310;-79
2023/12/29 13:03:20;;;;;;;10.37;10.07;;;11.70;99.90;;;;;;5037758;28;20259;-79
2023/12/29 13:05:48;;;;;;;10.63;10.33;;;11.70;99.90;;;;;;5038687;28;20235;-78
2023/12/29 13:08:15;;;;;;;10.40;10.10;;;11.90;99.90;;;;;;5041057;28;20227;-80
2023/12/29 13:10:43;;;;;;;10.50;10.20;;;12.10;99.90;;;;;;5048831;28;20235;-81
2023/12/29 13:13:12;;;;;;;10.50;10.20;;;12.10;99.90;;;;;;5059526;28;20270;-80
2023/12/29 13:15:48;;;;;;;10.37;10.07;;;12.10;99.90;;;;;;5049484;28;20235;-81
2023/12/29 13:18:16;;;;;;;10.40;10.10;;;12.10;99.90;;;;;;5043773;28;20234;-81
2023/12/29 13:20:47;;;;;;;10.53;10.23;;;12.10;99.90;;;;;;5043921;28;20231;-81
2023/12/29 13:23:15;;;;;;;10.40;10.10;;;12.10;99.90;;;;;;5045878;28;20227;-83
2023/12/29 13:25:45;;;;;;;10.30;10.00;;;12.20;99.90;;;;;;5049458;28;20219;-82
2023/12/29 13:28:15;;;;;;;10.10;9.80;;;12.20;99.90;;;;;;5045549;28;20219;-82
2023/12/29 13:30:42;;;;;;;10.30;10.00;;;12.10;99.90;;;;;;5046689;28;20231;-81
2023/12/29 13:33:15;;;;;;;10.47;10.17;;;12.10;99.90;;;;;;5049639;28;20235;-82
2023/12/29 13:35:52;;;;;;;10.40;10.10;;;12.10;99.90;;;;;;5058129;28;20215;-80
2023/12/29 13:38:25;;;;;;;10.40;10.10;;;12.10;99.90;;;;;;5051943;28;20297;-81
2023/12/29 13:40:59;;;;;;;10.47;10.17;;;12.10;99.90;;;;;;5045013;28;20286;-81
2023/12/29 13:43:32;;;;;;;10.53;10.23;;;12.10;99.90;;;;;;5045068;28;20235;-80